Marco Polo — C6JZ7 — position and weather

sailwx.info

Track history (hours):
 
Tides and Currents Weather Stations Pressure Air Temp Water Temp Dewpoint Dewpoint Depression Visibility Wind Speed Wind Dir Waves Ship Positions

Marco Polo

Operator: Orient Lines

Last reported at 2017-Jul-21 20:28 UTC. Time now 2017-Jul-22 16:56 UTC.
Position N 65°41' W 053°47'.

Type: Ship. MMSI: 308691456.

Date/timePositionNaut miles runAvg speedWind from/ knotsBaromVisibWave heightAir tempDewpointWater temp
2017-Jul-21 20:28N 65°41' W 053°47'916.7
2017-Jul-21 19:56N 65°33' W 053°40'816.6
2017-Jul-21 19:27N 65°25' W 053°34'816.7
2017-Jul-21 18:56N 65°17' W 053°28'716.6
2017-Jul-21 18:30N 65°10' W 053°23'816.6
2017-Jul-21 18:01N 65°02' W 053°17'816.5
2017-Jul-21 17:30N 64°54' W 053°11'816.5
2017-Jul-21 17:00N 64°46' W 053°05'816.7
2017-Jul-21 16:30N 64°39' W 052°58'816.7
2017-Jul-21 16:00N 64°31' W 052°53'816.8
2017-Jul-21 15:30N 64°23' W 052°47'817.0
2017-Jul-21 15:01N 64°15' W 052°41'816.9
2017-Jul-21 14:31N 64°06' W 052°35'816.5
2017-Jul-21 14:00N 63°59' W 052°30'816.5
2017-Jul-21 13:31N 63°51' W 052°24'816.8
2017-Jul-21 13:00N 63°43' W 052°17'816.6
2017-Jul-21 12:30N 63°35' W 052°11'816.3
2017-Jul-21 12:00N 63°27' W 052°05'816.2
2017-Jul-21 11:30N 63°20' W 051°59'  
2017-Jul-14 19:59N 62°19' W 008°11'2916.2
2017-Jul-14 18:10N 62°00' W 007°23'317.2
2017-Jul-14 17:59N 61°59' W 007°17'1017.1
2017-Jul-14 17:25N 61°56' W 006°57'716.9
2017-Jul-14 17:00N 61°57' W 006°43'714.2
2017-Jul-14 16:30N 62°04' W 006°44'611.4
2017-Jul-14 16:00N 62°06' W 006°56'0 0.6
2017-Jul-14 15:30N 62°06' W 006°56'0 0.0
2017-Jul-14 14:59N 62°06' W 006°56'0 0.0
2017-Jul-14 14:30N 62°06' W 006°56'0 0.0
2017-Jul-14 13:59N 62°06' W 006°56'0 0.0
2017-Jul-14 13:29N 62°06' W 006°56'0 0.0
2017-Jul-14 12:59N 62°06' W 006°56'0 0.0
2017-Jul-14 12:29N 62°06' W 006°56'0 0.0
2017-Jul-14 11:59N 62°06' W 006°56'0 0.0
2017-Jul-14 11:29N 62°06' W 006°56'0 0.0
2017-Jul-14 10:59N 62°06' W 006°56'0 0.0
2017-Jul-14 10:29N 62°06' W 006°56'0 0.0
2017-Jul-14 09:59N 62°06' W 006°56'0 0.0
2017-Jul-14 09:29N 62°06' W 006°56'0 0.0
2017-Jul-14 08:59N 62°06' W 006°56'0 0.0
2017-Jul-14 08:29N 62°06' W 006°56'0 0.0
2017-Jul-14 07:59N 62°06' W 006°56'0 0.0
2017-Jul-14 07:29N 62°06' W 006°56'0 0.0
2017-Jul-14 06:59N 62°06' W 006°56'0 0.0
2017-Jul-14 06:30N 62°06' W 006°56'0 0.4
2017-Jul-14 06:00N 62°06' W 006°56'510.8
2017-Jul-14 05:30N 62°04' W 006°45'510.6
2017-Jul-14 05:00N 61°59' W 006°43'510.7
2017-Jul-14 04:30N 61°54' W 006°38'612.2
2017-Jul-14 04:00N 61°49' W 006°32'612.1
2017-Jul-14 03:30N 61°43' W 006°27'1012.7
2017-Jul-14 02:45N 61°35' W 006°18'14813.9
2017-Jul-13 16:07N 59°23' W 004°02'214.1
2017-Jul-13 16:00N 59°21' W 004°01'714.4
2017-Jul-13 15:30N 59°15' W 003°55'815.0
2017-Jul-13 15:00N 59°08' W 003°48'714.9
2017-Jul-13 14:31N 59°02' W 003°42'714.8
2017-Jul-13 14:00N 58°55' W 003°35'815.1
2017-Jul-13 13:30N 58°49' W 003°28'714.5
2017-Jul-13 13:00N 58°44' W 003°17'613.0
2017-Jul-13 12:30N 58°43' W 003°05'510.1
2017-Jul-13 12:00N 58°39' W 002°58'612.3
2017-Jul-13 11:30N 58°34' W 002°51'4814.6
2017-Jul-13 08:16N 57°55' W 002°00'415.6
2017-Jul-13 08:01N 57°52' W 001°56'816.2
2017-Jul-13 07:30N 57°45' W 001°47'816.1
2017-Jul-13 07:00N 57°37' W 001°42'815.9
2017-Jul-13 06:30N 57°29' W 001°41'815.5
2017-Jul-13 06:00N 57°21' W 001°43'715.1
2017-Jul-13 05:31N 57°15' W 001°47'714.7
2017-Jul-13 05:00N 57°08' W 001°52'714.5
2017-Jul-13 04:30N 57°01' W 001°57'2114.1
2017-Jul-13 03:01N 56°41' W 002°10'014.2
2017-Jul-13 03:00N 56°41' W 002°10'714.2
2017-Jul-13 02:31N 56°34' W 002°15'714.4
2017-Jul-13 02:00N 56°28' W 002°19'714.6
2017-Jul-13 01:31N 56°21' W 002°24'714.3
2017-Jul-13 01:01N 56°15' W 002°31'714.3
2017-Jul-13 00:30N 56°11' W 002°41'714.3
2017-Jul-13 00:01N 56°07' W 002°52'714.5
2017-Jul-12 23:30N 56°03' W 003°03'612.6
2017-Jul-12 23:00N 56°02' W 003°14'611.3
2017-Jul-12 22:28N 56°01' W 003°25'3 0.3
2017-Jul-12 11:49N 56°01' W 003°20'414.2
2017-Jul-12 11:31N 56°02' W 003°12'713.6
2017-Jul-12 11:00N 56°04' W 003°00'611.6
2017-Jul-12 10:31N 56°05' W 002°50'713.1
2017-Jul-12 10:00N 56°06' W 002°39'611.1
2017-Jul-12 09:30N 56°04' W 002°29'611.0
2017-Jul-12 09:00N 56°02' W 002°20'711.0
2017-Jul-12 08:22N 55°60' W 002°08'410.6
2017-Jul-12 08:00N 55°57' W 002°03'713.1
2017-Jul-12 07:30N 55°53' W 001°54'612.7
2017-Jul-12 07:00N 55°48' W 001°46'612.8
2017-Jul-12 06:30N 55°44' W 001°38'812.5
2017-Jul-12 05:52N 55°37' W 001°31'513.0
2017-Jul-12 05:30N 55°32' W 001°29'613.0
2017-Jul-12 05:00N 55°26' W 001°27'613.0
2017-Jul-12 04:30N 55°20' W 001°24'713.1
2017-Jul-12 04:01N 55°13' W 001°22'713.2
2017-Jul-12 03:30N 55°07' W 001°20'612.7
2017-Jul-12 03:00N 55°00' W 001°21'3 6.8
2017-Jul-12 02:30N 54°60' W 001°27'0 0.6
2017-Jul-12 02:00N 54°60' W 001°27'0 0.0
2017-Jul-12 01:23N 54°60' W 001°27'0 0.0
2017-Jul-12 00:53N 54°60' W 001°27'0 0.0
2017-Jul-12 00:26N 54°60' W 001°27'0 0.0
2017-Jul-11 23:56N 54°60' W 001°27'0 0.0
2017-Jul-11 23:23N 54°60' W 001°27'0 0.0
2017-Jul-11 22:38N 54°60' W 001°27'0 0.0
2017-Jul-11 22:26N 54°60' W 001°27'0 0.0
2017-Jul-11 21:56N 54°60' W 001°27'0 0.0
2017-Jul-11 21:26N 54°60' W 001°27'0 0.0
2017-Jul-11 20:59N 54°60' W 001°27'0 0.0
2017-Jul-11 20:29N 54°60' W 001°27'  
Track history (hours):
 
Tides and Currents Weather Stations Pressure Air Temp Water Temp Dewpoint Dewpoint Depression Visibility Wind Speed Wind Dir Waves Ship Positions

Marco Polo

Operator: Orient Lines

Last reported at 2017-Jul-21 20:28 UTC. Time now 2017-Jul-22 16:56 UTC.
Position N 65°41' W 053°47'.

Type: Ship. MMSI: 308691456.

Date/timePositionNaut miles runAvg speedWind from/ knotsBaromVisibWave heightAir tempDewpointWater temp
2017-Jul-21 20:28N 65°41' W 053°47'916.7
2017-Jul-21 19:56N 65°33' W 053°40'816.6
2017-Jul-21 19:27N 65°25' W 053°34'816.7
2017-Jul-21 18:56N 65°17' W 053°28'716.6
2017-Jul-21 18:30N 65°10' W 053°23'816.6
2017-Jul-21 18:01N 65°02' W 053°17'816.5
2017-Jul-21 17:30N 64°54' W 053°11'816.5
2017-Jul-21 17:00N 64°46' W 053°05'816.7
2017-Jul-21 16:30N 64°39' W 052°58'816.7
2017-Jul-21 16:00N 64°31' W 052°53'816.8
2017-Jul-21 15:30N 64°23' W 052°47'817.0
2017-Jul-21 15:01N 64°15' W 052°41'816.9
2017-Jul-21 14:31N 64°06' W 052°35'816.5
2017-Jul-21 14:00N 63°59' W 052°30'816.5
2017-Jul-21 13:31N 63°51' W 052°24'816.8
2017-Jul-21 13:00N 63°43' W 052°17'816.6
2017-Jul-21 12:30N 63°35' W 052°11'816.3
2017-Jul-21 12:00N 63°27' W 052°05'816.2
2017-Jul-21 11:30N 63°20' W 051°59'  
2017-Jul-14 19:59N 62°19' W 008°11'2916.2
2017-Jul-14 18:10N 62°00' W 007°23'317.2
2017-Jul-14 17:59N 61°59' W 007°17'1017.1
2017-Jul-14 17:25N 61°56' W 006°57'716.9
2017-Jul-14 17:00N 61°57' W 006°43'714.2
2017-Jul-14 16:30N 62°04' W 006°44'611.4
2017-Jul-14 16:00N 62°06' W 006°56'0 0.6
2017-Jul-14 15:30N 62°06' W 006°56'0 0.0
2017-Jul-14 14:59N 62°06' W 006°56'0 0.0
2017-Jul-14 14:30N 62°06' W 006°56'0 0.0
2017-Jul-14 13:59N 62°06' W 006°56'0 0.0
2017-Jul-14 13:29N 62°06' W 006°56'0 0.0
2017-Jul-14 12:59N 62°06' W 006°56'0 0.0
2017-Jul-14 12:29N 62°06' W 006°56'0 0.0
2017-Jul-14 11:59N 62°06' W 006°56'0 0.0
2017-Jul-14 11:29N 62°06' W 006°56'0 0.0
2017-Jul-14 10:59N 62°06' W 006°56'0 0.0
2017-Jul-14 10:29N 62°06' W 006°56'0 0.0
2017-Jul-14 09:59N 62°06' W 006°56'0 0.0
2017-Jul-14 09:29N 62°06' W 006°56'0 0.0
2017-Jul-14 08:59N 62°06' W 006°56'0 0.0
2017-Jul-14 08:29N 62°06' W 006°56'0 0.0
2017-Jul-14 07:59N 62°06' W 006°56'0 0.0
2017-Jul-14 07:29N 62°06' W 006°56'0 0.0
2017-Jul-14 06:59N 62°06' W 006°56'0 0.0
2017-Jul-14 06:30N 62°06' W 006°56'0 0.4
2017-Jul-14 06:00N 62°06' W 006°56'510.8
2017-Jul-14 05:30N 62°04' W 006°45'510.6
2017-Jul-14 05:00N 61°59' W 006°43'510.7
2017-Jul-14 04:30N 61°54' W 006°38'612.2
2017-Jul-14 04:00N 61°49' W 006°32'612.1
2017-Jul-14 03:30N 61°43' W 006°27'1012.7
2017-Jul-14 02:45N 61°35' W 006°18'14813.9
2017-Jul-13 16:07N 59°23' W 004°02'214.1
2017-Jul-13 16:00N 59°21' W 004°01'714.4
2017-Jul-13 15:30N 59°15' W 003°55'815.0
2017-Jul-13 15:00N 59°08' W 003°48'714.9
2017-Jul-13 14:31N 59°02' W 003°42'714.8
2017-Jul-13 14:00N 58°55' W 003°35'815.1
2017-Jul-13 13:30N 58°49' W 003°28'714.5
2017-Jul-13 13:00N 58°44' W 003°17'613.0
2017-Jul-13 12:30N 58°43' W 003°05'510.1
2017-Jul-13 12:00N 58°39' W 002°58'612.3
2017-Jul-13 11:30N 58°34' W 002°51'4814.6
2017-Jul-13 08:16N 57°55' W 002°00'415.6
2017-Jul-13 08:01N 57°52' W 001°56'816.2
2017-Jul-13 07:30N 57°45' W 001°47'816.1
2017-Jul-13 07:00N 57°37' W 001°42'815.9
2017-Jul-13 06:30N 57°29' W 001°41'815.5
2017-Jul-13 06:00N 57°21' W 001°43'715.1
2017-Jul-13 05:31N 57°15' W 001°47'714.7
2017-Jul-13 05:00N 57°08' W 001°52'714.5
2017-Jul-13 04:30N 57°01' W 001°57'2114.1
2017-Jul-13 03:01N 56°41' W 002°10'014.2
2017-Jul-13 03:00N 56°41' W 002°10'714.2
2017-Jul-13 02:31N 56°34' W 002°15'714.4
2017-Jul-13 02:00N 56°28' W 002°19'714.6
2017-Jul-13 01:31N 56°21' W 002°24'714.3
2017-Jul-13 01:01N 56°15' W 002°31'714.3
2017-Jul-13 00:30N 56°11' W 002°41'714.3
2017-Jul-13 00:01N 56°07' W 002°52'714.5
2017-Jul-12 23:30N 56°03' W 003°03'612.6
2017-Jul-12 23:00N 56°02' W 003°14'611.3
2017-Jul-12 22:28N 56°01' W 003°25'3 0.3
2017-Jul-12 11:49N 56°01' W 003°20'414.2
2017-Jul-12 11:31N 56°02' W 003°12'713.6
2017-Jul-12 11:00N 56°04' W 003°00'611.6
2017-Jul-12 10:31N 56°05' W 002°50'713.1
2017-Jul-12 10:00N 56°06' W 002°39'611.1
2017-Jul-12 09:30N 56°04' W 002°29'611.0
2017-Jul-12 09:00N 56°02' W 002°20'711.0
2017-Jul-12 08:22N 55°60' W 002°08'410.6
2017-Jul-12 08:00N 55°57' W 002°03'713.1
2017-Jul-12 07:30N 55°53' W 001°54'612.7
2017-Jul-12 07:00N 55°48' W 001°46'612.8
2017-Jul-12 06:30N 55°44' W 001°38'812.5
2017-Jul-12 05:52N 55°37' W 001°31'513.0
2017-Jul-12 05:30N 55°32' W 001°29'613.0
2017-Jul-12 05:00N 55°26' W 001°27'613.0
2017-Jul-12 04:30N 55°20' W 001°24'713.1
2017-Jul-12 04:01N 55°13' W 001°22'713.2
2017-Jul-12 03:30N 55°07' W 001°20'612.7
2017-Jul-12 03:00N 55°00' W 001°21'3 6.8
2017-Jul-12 02:30N 54°60' W 001°27'0 0.6
2017-Jul-12 02:00N 54°60' W 001°27'0 0.0
2017-Jul-12 01:23N 54°60' W 001°27'0 0.0
2017-Jul-12 00:53N 54°60' W 001°27'0 0.0
2017-Jul-12 00:26N 54°60' W 001°27'0 0.0
2017-Jul-11 23:56N 54°60' W 001°27'0 0.0
2017-Jul-11 23:23N 54°60' W 001°27'0 0.0
2017-Jul-11 22:38N 54°60' W 001°27'0 0.0
2017-Jul-11 22:26N 54°60' W 001°27'0 0.0
2017-Jul-11 21:56N 54°60' W 001°27'0 0.0
2017-Jul-11 21:26N 54°60' W 001°27'0 0.0
2017-Jul-11 20:59N 54°60' W 001°27'0 0.0
2017-Jul-11 20:29N 54°60' W 001°27'  

Dump ship's entire track history